sensor_id;sensor_type;location;lat;lon;timestamp;P1;durP1;ratioP1;P2;durP2;ratioP2
43146;SDS011;28752;48.266;7.402;2023-11-21T00:01:44;2.23;;;0.80;;
43146;SDS011;28752;48.266;7.402;2023-11-21T00:04:09;2.37;;;1.03;;
43146;SDS011;28752;48.266;7.402;2023-11-21T00:06:35;2.85;;;1.00;;
43146;SDS011;28752;48.266;7.402;2023-11-21T00:09:00;1.60;;;0.70;;
43146;SDS011;28752;48.266;7.402;2023-11-21T00:11:25;2.60;;;0.73;;
43146;SDS011;28752;48.266;7.402;2023-11-21T00:13:51;2.47;;;0.70;;
43146;SDS011;28752;48.266;7.402;2023-11-21T00:16:16;2.33;;;0.70;;
43146;SDS011;28752;48.266;7.402;2023-11-21T00:18:42;1.63;;;0.63;;
43146;SDS011;28752;48.266;7.402;2023-11-21T00:21:08;3.23;;;0.67;;
43146;SDS011;28752;48.266;7.402;2023-11-21T00:26:00;3.17;;;0.73;;
43146;SDS011;28752;48.266;7.402;2023-11-21T00:28:26;1.60;;;0.60;;
43146;SDS011;28752;48.266;7.402;2023-11-21T00:30:53;2.30;;;0.60;;
43146;SDS011;28752;48.266;7.402;2023-11-21T00:33:19;3.58;;;0.95;;
43146;SDS011;28752;48.266;7.402;2023-11-21T00:38:14;2.08;;;0.77;;
43146;SDS011;28752;48.266;7.402;2023-11-21T00:40:39;1.67;;;0.60;;
43146;SDS011;28752;48.266;7.402;2023-11-21T00:43:05;2.03;;;0.57;;
43146;SDS011;28752;48.266;7.402;2023-11-21T00:45:30;2.33;;;0.70;;
43146;SDS011;28752;48.266;7.402;2023-11-21T00:47:55;2.73;;;0.70;;
43146;SDS011;28752;48.266;7.402;2023-11-21T00:50:21;2.40;;;0.70;;
43146;SDS011;28752;48.266;7.402;2023-11-21T00:52:46;1.95;;;0.90;;
43146;SDS011;28752;48.266;7.402;2023-11-21T00:55:12;2.07;;;0.80;;
43146;SDS011;28752;48.266;7.402;2023-11-21T00:57:38;1.52;;;0.57;;
43146;SDS011;28752;48.266;7.402;2023-11-21T01:00:03;1.53;;;0.40;;
43146;SDS011;28752;48.266;7.402;2023-11-21T01:02:38;1.98;;;0.50;;
43146;SDS011;28752;48.266;7.402;2023-11-21T01:05:03;2.67;;;0.67;;
43146;SDS011;28752;48.266;7.402;2023-11-21T01:07:29;0.95;;;0.50;;
43146;SDS011;28752;48.266;7.402;2023-11-21T01:09:54;1.73;;;0.73;;
43146;SDS011;28752;48.266;7.402;2023-11-21T01:12:21;1.95;;;0.75;;
43146;SDS011;28752;48.266;7.402;2023-11-21T01:14:46;1.83;;;0.60;;
43146;SDS011;28752;48.266;7.402;2023-11-21T01:17:12;1.73;;;0.60;;
43146;SDS011;28752;48.266;7.402;2023-11-21T01:19:37;1.10;;;0.50;;
43146;SDS011;28752;48.266;7.402;2023-11-21T01:22:02;1.17;;;0.50;;
43146;SDS011;28752;48.266;7.402;2023-11-21T01:24:28;1.77;;;0.60;;
43146;SDS011;28752;48.266;7.402;2023-11-21T01:26:54;1.60;;;0.60;;
43146;SDS011;28752;48.266;7.402;2023-11-21T01:29:19;1.27;;;0.50;;
43146;SDS011;28752;48.266;7.402;2023-11-21T01:31:45;1.63;;;0.57;;
43146;SDS011;28752;48.266;7.402;2023-11-21T01:34:10;1.60;;;0.80;;
43146;SDS011;28752;48.266;7.402;2023-11-21T01:36:35;1.57;;;0.50;;
43146;SDS011;28752;48.266;7.402;2023-11-21T01:39:01;1.03;;;0.43;;
43146;SDS011;28752;48.266;7.402;2023-11-21T01:41:26;1.50;;;0.50;;
43146;SDS011;28752;48.266;7.402;2023-11-21T01:43:53;2.38;;;0.60;;
43146;SDS011;28752;48.266;7.402;2023-11-21T01:46:19;3.57;;;0.53;;
43146;SDS011;28752;48.266;7.402;2023-11-21T01:48:45;2.20;;;0.60;;
43146;SDS011;28752;48.266;7.402;2023-11-21T01:51:11;1.85;;;0.45;;
43146;SDS011;28752;48.266;7.402;2023-11-21T01:53:37;2.00;;;0.57;;
43146;SDS011;28752;48.266;7.402;2023-11-21T01:56:03;2.35;;;0.60;;
43146;SDS011;28752;48.266;7.402;2023-11-21T01:58:32;3.17;;;0.47;;
43146;SDS011;28752;48.266;7.402;2023-11-21T02:00:57;1.97;;;0.50;;
43146;SDS011;28752;48.266;7.402;2023-11-21T02:03:23;2.42;;;0.40;;
43146;SDS011;28752;48.266;7.402;2023-11-21T02:05:48;1.77;;;0.73;;
43146;SDS011;28752;48.266;7.402;2023-11-21T02:08:14;0.80;;;0.40;;
43146;SDS011;28752;48.266;7.402;2023-11-21T02:10:39;1.37;;;0.57;;
43146;SDS011;28752;48.266;7.402;2023-11-21T02:13:05;2.00;;;0.60;;
43146;SDS011;28752;48.266;7.402;2023-11-21T02:15:31;1.40;;;0.67;;
43146;SDS011;28752;48.266;7.402;2023-11-21T02:17:56;2.00;;;0.80;;
43146;SDS011;28752;48.266;7.402;2023-11-21T02:20:23;1.83;;;0.65;;
43146;SDS011;28752;48.266;7.402;2023-11-21T02:22:53;2.25;;;0.70;;
43146;SDS011;28752;48.266;7.402;2023-11-21T02:25:24;2.10;;;0.50;;
43146;SDS011;28752;48.266;7.402;2023-11-21T02:27:50;2.13;;;0.47;;
43146;SDS011;28752;48.266;7.402;2023-11-21T02:30:16;2.10;;;0.47;;
43146;SDS011;28752;48.266;7.402;2023-11-21T02:32:41;0.98;;;0.50;;
43146;SDS011;28752;48.266;7.402;2023-11-21T02:35:08;1.25;;;0.47;;
43146;SDS011;28752;48.266;7.402;2023-11-21T02:37:34;0.82;;;0.40;;
43146;SDS011;28752;48.266;7.402;2023-11-21T02:40:00;1.75;;;0.40;;
43146;SDS011;28752;48.266;7.402;2023-11-21T02:42:28;0.82;;;0.50;;
43146;SDS011;28752;48.266;7.402;2023-11-21T02:44:54;0.75;;;0.32;;
43146;SDS011;28752;48.266;7.402;2023-11-21T02:47:19;2.27;;;0.60;;
43146;SDS011;28752;48.266;7.402;2023-11-21T02:49:44;3.70;;;0.70;;
43146;SDS011;28752;48.266;7.402;2023-11-21T02:52:10;2.67;;;0.70;;
43146;SDS011;28752;48.266;7.402;2023-11-21T02:54:35;2.63;;;0.83;;
43146;SDS011;28752;48.266;7.402;2023-11-21T02:57:01;1.80;;;0.70;;
43146;SDS011;28752;48.266;7.402;2023-11-21T02:59:27;2.75;;;1.00;;
43146;SDS011;28752;48.266;7.402;2023-11-21T03:01:52;4.30;;;1.10;;
43146;SDS011;28752;48.266;7.402;2023-11-21T03:04:18;4.47;;;1.27;;
43146;SDS011;28752;48.266;7.402;2023-11-21T03:06:44;2.65;;;1.10;;
43146;SDS011;28752;48.266;7.402;2023-11-21T03:09:10;4.65;;;1.20;;
43146;SDS011;28752;48.266;7.402;2023-11-21T03:11:37;4.47;;;1.20;;
43146;SDS011;28752;48.266;7.402;2023-11-21T03:14:03;3.35;;;1.42;;
43146;SDS011;28752;48.266;7.402;2023-11-21T03:16:28;4.33;;;1.40;;
43146;SDS011;28752;48.266;7.402;2023-11-21T03:18:54;3.20;;;1.23;;
43146;SDS011;28752;48.266;7.402;2023-11-21T03:21:19;4.00;;;1.38;;
43146;SDS011;28752;48.266;7.402;2023-11-21T03:23:45;3.23;;;1.30;;
43146;SDS011;28752;48.266;7.402;2023-11-21T03:26:13;3.70;;;1.27;;
43146;SDS011;28752;48.266;7.402;2023-11-21T03:28:38;3.75;;;1.40;;
43146;SDS011;28752;48.266;7.402;2023-11-21T03:31:04;5.28;;;1.77;;
43146;SDS011;28752;48.266;7.402;2023-11-21T03:33:31;3.60;;;1.30;;
43146;SDS011;28752;48.266;7.402;2023-11-21T03:35:57;2.40;;;0.95;;
43146;SDS011;28752;48.266;7.402;2023-11-21T03:38:22;3.27;;;1.10;;
43146;SDS011;28752;48.266;7.402;2023-11-21T03:40:48;3.10;;;1.00;;
43146;SDS011;28752;48.266;7.402;2023-11-21T03:43:14;2.90;;;0.73;;
43146;SDS011;28752;48.266;7.402;2023-11-21T03:45:39;2.93;;;0.83;;
43146;SDS011;28752;48.266;7.402;2023-11-21T03:48:06;2.03;;;0.70;;
43146;SDS011;28752;48.266;7.402;2023-11-21T03:50:31;1.23;;;0.65;;
43146;SDS011;28752;48.266;7.402;2023-11-21T03:52:57;2.47;;;0.65;;
43146;SDS011;28752;48.266;7.402;2023-11-21T03:55:22;2.23;;;0.50;;
43146;SDS011;28752;48.266;7.402;2023-11-21T03:57:51;2.55;;;0.70;;
43146;SDS011;28752;48.266;7.402;2023-11-21T04:00:17;1.05;;;0.50;;
43146;SDS011;28752;48.266;7.402;2023-11-21T04:02:42;1.92;;;0.70;;
43146;SDS011;28752;48.266;7.402;2023-11-21T04:05:08;2.60;;;0.93;;
43146;SDS011;28752;48.266;7.402;2023-11-21T04:07:34;2.45;;;0.80;;
43146;SDS011;28752;48.266;7.402;2023-11-21T04:10:00;2.00;;;0.73;;
43146;SDS011;28752;48.266;7.402;2023-11-21T04:12:25;1.43;;;0.60;;
43146;SDS011;28752;48.266;7.402;2023-11-21T04:14:51;0.93;;;0.57;;
43146;SDS011;28752;48.266;7.402;2023-11-21T04:17:19;4.30;;;1.80;;
43146;SDS011;28752;48.266;7.402;2023-11-21T04:19:45;2.15;;;0.80;;
43146;SDS011;28752;48.266;7.402;2023-11-21T04:22:11;1.67;;;0.80;;
43146;SDS011;28752;48.266;7.402;2023-11-21T04:24:37;3.30;;;1.00;;
43146;SDS011;28752;48.266;7.402;2023-11-21T04:27:02;1.93;;;0.70;;
43146;SDS011;28752;48.266;7.402;2023-11-21T04:29:28;2.17;;;0.70;;
43146;SDS011;28752;48.266;7.402;2023-11-21T04:31:53;2.23;;;1.10;;
43146;SDS011;28752;48.266;7.402;2023-11-21T04:34:19;3.77;;;0.93;;
43146;SDS011;28752;48.266;7.402;2023-11-21T04:36:44;1.90;;;0.80;;
43146;SDS011;28752;48.266;7.402;2023-11-21T04:39:09;3.20;;;1.10;;
43146;SDS011;28752;48.266;7.402;2023-11-21T04:41:36;3.22;;;1.00;;
43146;SDS011;28752;48.266;7.402;2023-11-21T04:44:04;2.10;;;0.95;;
43146;SDS011;28752;48.266;7.402;2023-11-21T04:51:21;2.03;;;0.80;;
43146;SDS011;28752;48.266;7.402;2023-11-21T04:53:46;2.37;;;0.90;;
43146;SDS011;28752;48.266;7.402;2023-11-21T04:56:12;2.40;;;0.90;;
43146;SDS011;28752;48.266;7.402;2023-11-21T04:58:37;2.67;;;1.10;;
43146;SDS011;28752;48.266;7.402;2023-11-21T05:01:04;2.85;;;0.90;;
43146;SDS011;28752;48.266;7.402;2023-11-21T05:03:30;2.97;;;0.98;;
43146;SDS011;28752;48.266;7.402;2023-11-21T05:05:57;3.60;;;0.95;;
43146;SDS011;28752;48.266;7.402;2023-11-21T05:08:22;3.17;;;1.20;;
43146;SDS011;28752;48.266;7.402;2023-11-21T05:10:47;1.80;;;0.93;;
43146;SDS011;28752;48.266;7.402;2023-11-21T05:13:14;4.85;;;1.80;;
43146;SDS011;28752;48.266;7.402;2023-11-21T05:15:42;3.40;;;1.50;;
43146;SDS011;28752;48.266;7.402;2023-11-21T05:25:25;2.87;;;1.10;;
43146;SDS011;28752;48.266;7.402;2023-11-21T05:27:50;4.40;;;1.47;;
43146;SDS011;28752;48.266;7.402;2023-11-21T05:30:16;2.30;;;1.03;;
43146;SDS011;28752;48.266;7.402;2023-11-21T05:32:41;2.00;;;0.90;;
43146;SDS011;28752;48.266;7.402;2023-11-21T05:35:09;1.90;;;0.80;;
43146;SDS011;28752;48.266;7.402;2023-11-21T05:37:40;2.92;;;0.95;;
43146;SDS011;28752;48.266;7.402;2023-11-21T05:40:06;4.35;;;1.17;;
43146;SDS011;28752;48.266;7.402;2023-11-21T05:42:33;3.83;;;1.17;;
43146;SDS011;28752;48.266;7.402;2023-11-21T05:49:51;2.85;;;1.10;;
43146;SDS011;28752;48.266;7.402;2023-11-21T05:52:17;2.30;;;1.00;;
43146;SDS011;28752;48.266;7.402;2023-11-21T05:54:43;2.30;;;1.02;;
43146;SDS011;28752;48.266;7.402;2023-11-21T05:57:08;1.73;;;0.90;;
43146;SDS011;28752;48.266;7.402;2023-11-21T05:59:34;2.40;;;0.97;;
43146;SDS011;28752;48.266;7.402;2023-11-21T06:01:59;2.70;;;1.00;;
43146;SDS011;28752;48.266;7.402;2023-11-21T06:04:24;2.30;;;0.80;;
43146;SDS011;28752;48.266;7.402;2023-11-21T06:06:51;1.63;;;0.85;;
43146;SDS011;28752;48.266;7.402;2023-11-21T06:09:17;2.55;;;0.88;;
43146;SDS011;28752;48.266;7.402;2023-11-21T06:11:43;1.92;;;0.93;;
43146;SDS011;28752;48.266;7.402;2023-11-21T06:14:09;3.73;;;0.80;;
43146;SDS011;28752;48.266;7.402;2023-11-21T06:16:35;2.90;;;1.25;;
43146;SDS011;28752;48.266;7.402;2023-11-21T06:19:01;2.53;;;0.80;;
43146;SDS011;28752;48.266;7.402;2023-11-21T06:21:26;1.53;;;0.70;;
43146;SDS011;28752;48.266;7.402;2023-11-21T06:23:52;2.20;;;0.93;;
43146;SDS011;28752;48.266;7.402;2023-11-21T06:26:18;2.35;;;0.95;;
43146;SDS011;28752;48.266;7.402;2023-11-21T06:28:44;1.38;;;0.70;;
43146;SDS011;28752;48.266;7.402;2023-11-21T06:31:09;3.60;;;0.90;;
43146;SDS011;28752;48.266;7.402;2023-11-21T06:33:35;2.83;;;0.60;;
43146;SDS011;28752;48.266;7.402;2023-11-21T06:36:01;2.25;;;0.70;;
43146;SDS011;28752;48.266;7.402;2023-11-21T06:38:27;1.52;;;0.70;;
43146;SDS011;28752;48.266;7.402;2023-11-21T06:40:54;2.88;;;0.70;;
43146;SDS011;28752;48.266;7.402;2023-11-21T06:43:20;1.52;;;0.60;;
43146;SDS011;28752;48.266;7.402;2023-11-21T06:45:47;0.95;;;0.60;;
43146;SDS011;28752;48.266;7.402;2023-11-21T06:48:12;1.30;;;0.70;;
43146;SDS011;28752;48.266;7.402;2023-11-21T06:50:38;2.83;;;0.70;;
43146;SDS011;28752;48.266;7.402;2023-11-21T06:53:03;1.27;;;0.50;;
43146;SDS011;28752;48.266;7.402;2023-11-21T06:55:31;2.45;;;0.60;;
43146;SDS011;28752;48.266;7.402;2023-11-21T06:57:57;1.02;;;0.47;;
43146;SDS011;28752;48.266;7.402;2023-11-21T07:00:23;1.33;;;0.60;;
43146;SDS011;28752;48.266;7.402;2023-11-21T07:02:48;1.03;;;0.43;;
43146;SDS011;28752;48.266;7.402;2023-11-21T07:05:14;1.93;;;0.50;;
43146;SDS011;28752;48.266;7.402;2023-11-21T07:07:40;1.63;;;0.60;;
43146;SDS011;28752;48.266;7.402;2023-11-21T07:10:05;1.30;;;0.60;;
43146;SDS011;28752;48.266;7.402;2023-11-21T07:12:33;0.73;;;0.47;;
43146;SDS011;28752;48.266;7.402;2023-11-21T07:14:59;1.60;;;0.40;;
43146;SDS011;28752;48.266;7.402;2023-11-21T07:17:24;0.60;;;0.40;;
43146;SDS011;28752;48.266;7.402;2023-11-21T07:19:49;1.73;;;0.73;;
43146;SDS011;28752;48.266;7.402;2023-11-21T07:22:15;1.87;;;0.70;;
43146;SDS011;28752;48.266;7.402;2023-11-21T07:24:47;2.58;;;0.52;;
43146;SDS011;28752;48.266;7.402;2023-11-21T07:27:14;1.23;;;0.50;;
43146;SDS011;28752;48.266;7.402;2023-11-21T07:29:40;1.33;;;0.50;;
43146;SDS011;28752;48.266;7.402;2023-11-21T07:32:05;1.83;;;0.70;;
43146;SDS011;28752;48.266;7.402;2023-11-21T07:34:31;5.13;;;1.90;;
43146;SDS011;28752;48.266;7.402;2023-11-21T07:36:56;3.97;;;2.50;;
43146;SDS011;28752;48.266;7.402;2023-11-21T07:39:21;4.40;;;2.83;;
43146;SDS011;28752;48.266;7.402;2023-11-21T07:41:47;4.40;;;1.37;;
43146;SDS011;28752;48.266;7.402;2023-11-21T07:44:14;2.47;;;1.05;;
43146;SDS011;28752;48.266;7.402;2023-11-21T07:46:40;1.70;;;0.50;;
43146;SDS011;28752;48.266;7.402;2023-11-21T07:49:06;1.93;;;0.73;;
43146;SDS011;28752;48.266;7.402;2023-11-21T07:51:31;1.17;;;0.60;;
43146;SDS011;28752;48.266;7.402;2023-11-21T07:53:56;0.40;;;0.40;;
43146;SDS011;28752;48.266;7.402;2023-11-21T07:56:22;3.33;;;0.70;;
43146;SDS011;28752;48.266;7.402;2023-11-21T07:58:47;1.07;;;0.60;;
43146;SDS011;28752;48.266;7.402;2023-11-21T08:01:12;1.20;;;0.60;;
43146;SDS011;28752;48.266;7.402;2023-11-21T08:03:38;2.77;;;0.70;;
43146;SDS011;28752;48.266;7.402;2023-11-21T08:06:03;2.20;;;0.80;;
43146;SDS011;28752;48.266;7.402;2023-11-21T08:08:30;2.10;;;0.80;;
43146;SDS011;28752;48.266;7.402;2023-11-21T08:10:57;2.10;;;0.90;;
43146;SDS011;28752;48.266;7.402;2023-11-21T08:13:25;1.93;;;0.73;;
43146;SDS011;28752;48.266;7.402;2023-11-21T08:15:55;1.88;;;1.00;;
43146;SDS011;28752;48.266;7.402;2023-11-21T08:18:21;3.28;;;1.00;;
43146;SDS011;28752;48.266;7.402;2023-11-21T08:20:47;2.23;;;1.03;;
43146;SDS011;28752;48.266;7.402;2023-11-21T08:23:16;2.08;;;1.10;;
43146;SDS011;28752;48.266;7.402;2023-11-21T08:25:45;2.60;;;1.27;;
43146;SDS011;28752;48.266;7.402;2023-11-21T08:28:10;2.45;;;0.90;;
43146;SDS011;28752;48.266;7.402;2023-11-21T08:30:36;1.58;;;0.93;;
43146;SDS011;28752;48.266;7.402;2023-11-21T08:33:02;1.75;;;0.80;;
43146;SDS011;28752;48.266;7.402;2023-11-21T08:40:19;2.83;;;1.00;;
43146;SDS011;28752;48.266;7.402;2023-11-21T08:47:37;2.38;;;0.90;;
43146;SDS011;28752;48.266;7.402;2023-11-21T08:50:03;2.30;;;0.90;;
43146;SDS011;28752;48.266;7.402;2023-11-21T08:52:31;2.90;;;1.10;;
43146;SDS011;28752;48.266;7.402;2023-11-21T08:54:56;1.92;;;0.90;;
43146;SDS011;28752;48.266;7.402;2023-11-21T08:57:22;6.83;;;2.33;;
43146;SDS011;28752;48.266;7.402;2023-11-21T08:59:48;1.67;;;0.82;;
43146;SDS011;28752;48.266;7.402;2023-11-21T09:02:13;2.45;;;1.00;;
43146;SDS011;28752;48.266;7.402;2023-11-21T09:04:39;3.43;;;1.53;;
43146;SDS011;28752;48.266;7.402;2023-11-21T09:07:04;2.83;;;1.20;;
43146;SDS011;28752;48.266;7.402;2023-11-21T09:09:30;3.20;;;1.30;;
43146;SDS011;28752;48.266;7.402;2023-11-21T09:11:55;2.53;;;1.10;;
43146;SDS011;28752;48.266;7.402;2023-11-21T09:14:21;2.37;;;0.87;;
43146;SDS011;28752;48.266;7.402;2023-11-21T09:16:46;2.57;;;1.10;;
43146;SDS011;28752;48.266;7.402;2023-11-21T09:19:12;1.63;;;0.90;;
43146;SDS011;28752;48.266;7.402;2023-11-21T09:21:39;1.55;;;0.80;;
43146;SDS011;28752;48.266;7.402;2023-11-21T09:24:04;1.47;;;0.80;;
43146;SDS011;28752;48.266;7.402;2023-11-21T09:26:30;2.50;;;0.93;;
43146;SDS011;28752;48.266;7.402;2023-11-21T09:28:56;2.15;;;1.30;;
43146;SDS011;28752;48.266;7.402;2023-11-21T09:31:22;2.60;;;1.02;;
43146;SDS011;28752;48.266;7.402;2023-11-21T09:33:49;1.23;;;0.80;;
43146;SDS011;28752;48.266;7.402;2023-11-21T09:36:15;2.22;;;1.05;;
43146;SDS011;28752;48.266;7.402;2023-11-21T09:38:41;1.85;;;0.85;;
43146;SDS011;28752;48.266;7.402;2023-11-21T09:41:12;2.13;;;1.00;;
43146;SDS011;28752;48.266;7.402;2023-11-21T09:43:49;4.07;;;1.10;;
43146;SDS011;28752;48.266;7.402;2023-11-21T09:46:20;3.15;;;1.55;;
43146;SDS011;28752;48.266;7.402;2023-11-21T09:48:50;3.40;;;1.67;;
43146;SDS011;28752;48.266;7.402;2023-11-21T09:51:18;2.85;;;1.30;;
43146;SDS011;28752;48.266;7.402;2023-11-21T09:53:45;1.55;;;0.80;;
43146;SDS011;28752;48.266;7.402;2023-11-21T09:56:15;2.05;;;1.00;;
43146;SDS011;28752;48.266;7.402;2023-11-21T09:58:44;1.85;;;0.93;;
43146;SDS011;28752;48.266;7.402;2023-11-21T10:01:10;2.65;;;0.90;;
43146;SDS011;28752;48.266;7.402;2023-11-21T10:03:37;3.75;;;1.30;;
43146;SDS011;28752;48.266;7.402;2023-11-21T10:06:07;1.73;;;0.90;;
43146;SDS011;28752;48.266;7.402;2023-11-21T10:08:33;1.73;;;1.00;;
43146;SDS011;28752;48.266;7.402;2023-11-21T10:11:01;1.27;;;0.73;;
43146;SDS011;28752;48.266;7.402;2023-11-21T10:15:55;2.30;;;1.00;;
43146;SDS011;28752;48.266;7.402;2023-11-21T10:18:24;2.45;;;1.17;;
43146;SDS011;28752;48.266;7.402;2023-11-21T10:20:51;2.08;;;1.00;;
43146;SDS011;28752;48.266;7.402;2023-11-21T10:25:44;3.60;;;1.98;;
43146;SDS011;28752;48.266;7.402;2023-11-21T10:28:09;3.83;;;2.00;;
43146;SDS011;28752;48.266;7.402;2023-11-21T10:30:35;5.47;;;1.90;;
43146;SDS011;28752;48.266;7.402;2023-11-21T10:33:03;3.05;;;1.30;;
43146;SDS011;28752;48.266;7.402;2023-11-21T10:38:07;4.80;;;1.73;;
43146;SDS011;28752;48.266;7.402;2023-11-21T10:40:37;3.45;;;1.60;;
43146;SDS011;28752;48.266;7.402;2023-11-21T10:43:07;3.05;;;1.52;;
43146;SDS011;28752;48.266;7.402;2023-11-21T10:45:38;4.15;;;2.10;;
43146;SDS011;28752;48.266;7.402;2023-11-21T10:48:07;6.63;;;4.03;;
43146;SDS011;28752;48.266;7.402;2023-11-21T10:50:34;7.03;;;2.75;;
43146;SDS011;28752;48.266;7.402;2023-11-21T10:53:04;4.70;;;2.55;;
43146;SDS011;28752;48.266;7.402;2023-11-21T10:55:30;5.13;;;2.10;;
43146;SDS011;28752;48.266;7.402;2023-11-21T10:58:02;5.78;;;2.80;;
43146;SDS011;28752;48.266;7.402;2023-11-21T11:00:29;4.57;;;2.58;;
43146;SDS011;28752;48.266;7.402;2023-11-21T11:02:56;4.70;;;2.30;;
43146;SDS011;28752;48.266;7.402;2023-11-21T11:05:24;2.03;;;1.00;;
43146;SDS011;28752;48.266;7.402;2023-11-21T11:07:51;2.22;;;0.82;;
43146;SDS011;28752;48.266;7.402;2023-11-21T11:10:24;3.22;;;1.15;;
43146;SDS011;28752;48.266;7.402;2023-11-21T11:12:52;2.35;;;0.90;;
43146;SDS011;28752;48.266;7.402;2023-11-21T11:15:19;1.48;;;0.70;;
43146;SDS011;28752;48.266;7.402;2023-11-21T11:17:45;1.95;;;0.90;;
43146;SDS011;28752;48.266;7.402;2023-11-21T11:20:12;1.77;;;0.80;;
43146;SDS011;28752;48.266;7.402;2023-11-21T11:27:52;1.52;;;0.90;;
43146;SDS011;28752;48.266;7.402;2023-11-21T11:33:11;1.05;;;0.50;;
43146;SDS011;28752;48.266;7.402;2023-11-21T11:35:52;1.25;;;0.70;;
43146;SDS011;28752;48.266;7.402;2023-11-21T11:38:30;2.95;;;0.90;;
43146;SDS011;28752;48.266;7.402;2023-11-21T11:41:00;2.53;;;0.88;;
43146;SDS011;28752;48.266;7.402;2023-11-21T11:43:28;3.20;;;1.10;;
43146;SDS011;28752;48.266;7.402;2023-11-21T11:45:56;1.40;;;0.90;;
43146;SDS011;28752;48.266;7.402;2023-11-21T11:53:32;2.08;;;1.00;;
43146;SDS011;28752;48.266;7.402;2023-11-21T11:56:34;3.60;;;1.30;;
43146;SDS011;28752;48.266;7.402;2023-11-21T11:58:55;1.88;;;1.10;;
43146;SDS011;28752;48.266;7.402;2023-11-21T12:01:22;1.40;;;0.90;;
43146;SDS011;28752;48.266;7.402;2023-11-21T12:06:42;3.58;;;1.63;;
43146;SDS011;28752;48.266;7.402;2023-11-21T12:09:18;3.92;;;1.67;;
43146;SDS011;28752;48.266;7.402;2023-11-21T12:11:46;4.82;;;1.95;;
43146;SDS011;28752;48.266;7.402;2023-11-21T12:14:13;4.65;;;1.55;;
43146;SDS011;28752;48.266;7.402;2023-11-21T12:21:30;2.37;;;0.80;;
43146;SDS011;28752;48.266;7.402;2023-11-21T12:23:57;2.25;;;0.73;;
43146;SDS011;28752;48.266;7.402;2023-11-21T12:26:23;2.53;;;1.00;;
43146;SDS011;28752;48.266;7.402;2023-11-21T12:31:20;3.80;;;1.55;;
43146;SDS011;28752;48.266;7.402;2023-11-21T12:33:48;4.80;;;1.38;;
43146;SDS011;28752;48.266;7.402;2023-11-21T12:36:14;2.00;;;0.80;;
43146;SDS011;28752;48.266;7.402;2023-11-21T12:38:40;1.38;;;0.52;;
43146;SDS011;28752;48.266;7.402;2023-11-21T12:41:05;1.03;;;0.63;;
43146;SDS011;28752;48.266;7.402;2023-11-21T12:43:35;0.98;;;0.55;;
43146;SDS011;28752;48.266;7.402;2023-11-21T12:46:04;2.55;;;1.20;;
43146;SDS011;28752;48.266;7.402;2023-11-21T12:48:36;1.73;;;0.90;;
43146;SDS011;28752;48.266;7.402;2023-11-21T12:51:04;2.80;;;1.20;;
43146;SDS011;28752;48.266;7.402;2023-11-21T12:53:31;2.75;;;1.20;;
43146;SDS011;28752;48.266;7.402;2023-11-21T12:56:01;3.35;;;1.35;;
43146;SDS011;28752;48.266;7.402;2023-11-21T12:58:28;3.50;;;1.48;;
43146;SDS011;28752;48.266;7.402;2023-11-21T13:00:54;3.67;;;1.40;;
43146;SDS011;28752;48.266;7.402;2023-11-21T13:03:24;4.25;;;1.80;;
43146;SDS011;28752;48.266;7.402;2023-11-21T13:05:51;2.97;;;1.10;;
43146;SDS011;28752;48.266;7.402;2023-11-21T13:08:20;3.08;;;1.23;;
43146;SDS011;28752;48.266;7.402;2023-11-21T13:10:51;4.65;;;1.52;;
43146;SDS011;28752;48.266;7.402;2023-11-21T13:13:20;1.83;;;1.10;;
43146;SDS011;28752;48.266;7.402;2023-11-21T13:15:55;4.30;;;1.50;;
43146;SDS011;28752;48.266;7.402;2023-11-21T13:18:22;2.25;;;1.10;;
43146;SDS011;28752;48.266;7.402;2023-11-21T13:20:49;2.60;;;1.00;;
43146;SDS011;28752;48.266;7.402;2023-11-21T13:23:15;2.45;;;1.30;;
43146;SDS011;28752;48.266;7.402;2023-11-21T13:25:42;2.22;;;1.08;;
43146;SDS011;28752;48.266;7.402;2023-11-21T13:30:34;2.60;;;1.15;;
43146;SDS011;28752;48.266;7.402;2023-11-21T13:33:01;6.57;;;2.80;;
43146;SDS011;28752;48.266;7.402;2023-11-21T13:35:27;2.28;;;1.08;;
43146;SDS011;28752;48.266;7.402;2023-11-21T13:38:06;4.03;;;1.90;;
43146;SDS011;28752;48.266;7.402;2023-11-21T13:40:32;3.95;;;1.40;;
43146;SDS011;28752;48.266;7.402;2023-11-21T13:43:04;2.92;;;1.40;;
43146;SDS011;28752;48.266;7.402;2023-11-21T13:45:34;3.78;;;1.20;;
43146;SDS011;28752;48.266;7.402;2023-11-21T13:48:04;2.70;;;1.20;;
43146;SDS011;28752;48.266;7.402;2023-11-21T13:50:35;4.30;;;1.30;;
43146;SDS011;28752;48.266;7.402;2023-11-21T13:53:04;3.65;;;1.45;;
43146;SDS011;28752;48.266;7.402;2023-11-21T13:55:41;2.95;;;1.13;;
43146;SDS011;28752;48.266;7.402;2023-11-21T13:58:07;2.92;;;0.93;;
43146;SDS011;28752;48.266;7.402;2023-11-21T14:00:36;2.70;;;1.00;;
43146;SDS011;28752;48.266;7.402;2023-11-21T14:03:12;3.20;;;1.10;;
43146;SDS011;28752;48.266;7.402;2023-11-21T14:05:46;3.83;;;1.60;;
43146;SDS011;28752;48.266;7.402;2023-11-21T14:08:19;4.00;;;1.50;;
43146;SDS011;28752;48.266;7.402;2023-11-21T14:10:46;4.32;;;1.92;;
43146;SDS011;28752;48.266;7.402;2023-11-21T14:13:25;3.65;;;1.83;;
43146;SDS011;28752;48.266;7.402;2023-11-21T14:15:52;4.35;;;1.70;;
43146;SDS011;28752;48.266;7.402;2023-11-21T14:18:27;3.20;;;1.60;;
43146;SDS011;28752;48.266;7.402;2023-11-21T14:21:01;3.22;;;1.45;;
43146;SDS011;28752;48.266;7.402;2023-11-21T14:23:27;4.47;;;1.80;;
43146;SDS011;28752;48.266;7.402;2023-11-21T14:25:55;4.85;;;2.58;;
43146;SDS011;28752;48.266;7.402;2023-11-21T14:28:21;4.18;;;2.15;;
43146;SDS011;28752;48.266;7.402;2023-11-21T14:30:49;5.80;;;2.95;;
43146;SDS011;28752;48.266;7.402;2023-11-21T14:33:15;2.95;;;1.30;;
43146;SDS011;28752;48.266;7.402;2023-11-21T14:38:08;2.25;;;1.20;;
43146;SDS011;28752;48.266;7.402;2023-11-21T14:40:35;3.50;;;1.80;;
43146;SDS011;28752;48.266;7.402;2023-11-21T14:43:02;3.00;;;1.63;;
43146;SDS011;28752;48.266;7.402;2023-11-21T14:45:31;7.25;;;2.85;;
43146;SDS011;28752;48.266;7.402;2023-11-21T14:47:58;5.10;;;2.30;;
43146;SDS011;28752;48.266;7.402;2023-11-21T14:50:41;8.75;;;3.97;;
43146;SDS011;28752;48.266;7.402;2023-11-21T14:55:34;5.10;;;1.80;;
43146;SDS011;28752;48.266;7.402;2023-11-21T14:58:15;4.53;;;1.90;;
43146;SDS011;28752;48.266;7.402;2023-11-21T15:00:43;8.35;;;3.20;;
43146;SDS011;28752;48.266;7.402;2023-11-21T15:03:09;7.05;;;2.85;;
43146;SDS011;28752;48.266;7.402;2023-11-21T15:05:36;3.90;;;1.67;;
43146;SDS011;28752;48.266;7.402;2023-11-21T15:08:03;7.47;;;2.60;;
43146;SDS011;28752;48.266;7.402;2023-11-21T15:10:48;8.23;;;3.30;;
43146;SDS011;28752;48.266;7.402;2023-11-21T15:13:19;5.47;;;2.28;;
43146;SDS011;28752;48.266;7.402;2023-11-21T15:15:45;2.67;;;1.00;;
43146;SDS011;28752;48.266;7.402;2023-11-21T15:18:10;2.63;;;1.20;;
43146;SDS011;28752;48.266;7.402;2023-11-21T15:20:41;17.65;;;9.85;;
43146;SDS011;28752;48.266;7.402;2023-11-21T15:23:08;8.93;;;3.90;;
43146;SDS011;28752;48.266;7.402;2023-11-21T15:25:34;7.95;;;3.97;;
43146;SDS011;28752;48.266;7.402;2023-11-21T15:28:00;11.00;;;3.65;;
43146;SDS011;28752;48.266;7.402;2023-11-21T15:30:26;9.52;;;4.00;;
43146;SDS011;28752;48.266;7.402;2023-11-21T15:32:52;10.98;;;5.30;;
43146;SDS011;28752;48.266;7.402;2023-11-21T15:35:19;13.25;;;5.30;;
43146;SDS011;28752;48.266;7.402;2023-11-21T15:37:45;13.27;;;5.47;;
43146;SDS011;28752;48.266;7.402;2023-11-21T15:40:11;12.68;;;6.30;;
43146;SDS011;28752;48.266;7.402;2023-11-21T15:42:39;8.52;;;4.47;;
43146;SDS011;28752;48.266;7.402;2023-11-21T15:45:04;6.87;;;3.13;;
43146;SDS011;28752;48.266;7.402;2023-11-21T15:47:32;13.90;;;5.88;;
43146;SDS011;28752;48.266;7.402;2023-11-21T15:49:58;11.32;;;5.28;;
43146;SDS011;28752;48.266;7.402;2023-11-21T15:52:23;20.27;;;8.73;;
43146;SDS011;28752;48.266;7.402;2023-11-21T15:54:48;12.63;;;4.93;;
43146;SDS011;28752;48.266;7.402;2023-11-21T15:57:14;10.90;;;3.75;;